createdAt,value
2019-05-16T00:00:41.840Z,92.71
2019-05-16T00:01:41.828Z,92.61
2019-05-16T00:02:41.809Z,92.40
2019-05-16T00:03:41.842Z,92.40
2019-05-16T00:04:41.811Z,92.50
2019-05-16T00:05:50.431Z,92.19
2019-05-16T00:06:42.769Z,92.30
2019-05-16T00:07:41.780Z,92.50
2019-05-16T00:08:41.754Z,92.61
2019-05-16T00:09:41.756Z,92.61
2019-05-16T00:10:41.739Z,92.61
2019-05-16T00:11:41.718Z,92.61
2019-05-16T00:12:41.711Z,92.50
2019-05-16T00:13:41.709Z,92.61
2019-05-16T00:14:41.710Z,92.61
2019-05-16T00:15:41.721Z,92.91
2019-05-16T00:16:41.679Z,93.12
2019-05-16T00:17:41.658Z,94.26
2019-05-16T00:18:41.646Z,95.25
2019-05-16T00:19:41.627Z,95.36
2019-05-16T00:20:41.651Z,94.22
2019-05-16T00:21:41.627Z,93.49
2019-05-16T00:22:41.595Z,93.39
2019-05-16T00:23:41.599Z,93.29
2019-05-16T00:24:41.576Z,93.49
2019-05-16T00:25:41.595Z,93.39
2019-05-16T00:26:41.561Z,93.29
2019-05-16T00:27:41.547Z,93.08
2019-05-16T00:28:41.542Z,93.80
2019-05-16T00:29:41.535Z,93.49
2019-05-16T00:30:41.536Z,92.97
2019-05-16T00:31:41.508Z,92.72
2019-05-16T00:32:41.496Z,92.32
2019-05-16T00:33:41.488Z,91.38
2019-05-16T00:34:41.485Z,91.28
2019-05-16T00:35:41.490Z,91.69
2019-05-16T00:36:41.455Z,91.80
2019-05-16T00:37:41.486Z,91.80
2019-05-16T00:38:41.457Z,91.59
2019-05-16T00:39:41.412Z,91.38
2019-05-16T00:40:41.418Z,91.59
2019-05-16T00:41:41.398Z,92.32
2019-05-16T00:42:41.384Z,92.00
2019-05-16T00:43:41.376Z,92.11
2019-05-16T00:44:41.784Z,91.90
2019-05-16T00:45:41.354Z,91.90
2019-05-16T00:46:41.345Z,91.59
2019-05-16T00:47:41.333Z,91.69
2019-05-16T00:48:41.321Z,91.34
2019-05-16T00:49:41.301Z,91.44
2019-05-16T00:50:41.328Z,91.55
2019-05-16T00:51:41.281Z,91.65
2019-05-16T00:52:41.289Z,91.75
2019-05-16T00:53:41.284Z,91.65
2019-05-16T00:54:41.512Z,91.55
2019-05-16T00:55:41.285Z,91.24
2019-05-16T00:56:41.225Z,91.34
2019-05-16T00:57:41.232Z,91.24
2019-05-16T00:58:41.202Z,90.93
2019-05-16T00:59:41.199Z,91.13
2019-05-16T01:00:41.207Z,91.34
2019-05-16T01:01:41.197Z,92.07
2019-05-16T01:02:41.166Z,92.07
2019-05-16T01:03:41.151Z,91.75
2019-05-16T01:04:41.149Z,91.75
2019-05-16T01:05:41.144Z,92.79
2019-05-16T01:06:41.139Z,92.48
2019-05-16T01:07:41.144Z,92.17
2019-05-16T01:08:41.092Z,92.58
2019-05-16T01:09:41.101Z,92.38
2019-05-16T01:10:41.103Z,92.07
2019-05-16T01:11:41.162Z,92.17
2019-05-16T01:12:41.050Z,92.17
2019-05-16T01:13:41.054Z,92.27
2019-05-16T01:14:41.030Z,91.75
2019-05-16T01:15:41.032Z,91.44
2019-05-16T01:16:41.029Z,91.34
2019-05-16T01:17:41.004Z,91.34
2019-05-16T01:18:40.993Z,91.65
2019-05-16T01:19:40.980Z,92.99
2019-05-16T01:20:40.959Z,92.79
2019-05-16T01:21:40.993Z,92.48
2019-05-16T01:22:40.939Z,92.38
2019-05-16T01:23:40.932Z,93.51
2019-05-16T01:24:41.547Z,94.34
2019-05-16T01:25:40.913Z,93.41
2019-05-16T01:26:40.899Z,93.82
2019-05-16T01:27:40.909Z,92.64
2019-05-16T01:28:40.878Z,92.54
2019-05-16T01:29:40.866Z,92.64
2019-05-16T01:30:40.870Z,92.54
2019-05-16T01:31:40.861Z,92.85
2019-05-16T01:32:40.848Z,92.74
2019-05-16T01:33:40.820Z,92.44
2019-05-16T01:34:40.838Z,92.13
2019-05-16T01:35:41.866Z,92.13
2019-05-16T01:36:41.010Z,92.13
2019-05-16T01:37:40.801Z,92.44
2019-05-16T01:38:41.700Z,92.54
2019-05-16T01:39:40.870Z,93.47
2019-05-16T01:40:40.788Z,93.37
2019-05-16T01:41:40.745Z,93.37
2019-05-16T01:42:40.741Z,93.88
2019-05-16T01:43:40.716Z,93.47
2019-05-16T01:44:40.706Z,92.95
2019-05-16T01:45:40.699Z,92.64
2019-05-16T01:46:40.688Z,92.54
2019-05-16T01:47:40.668Z,92.74
2019-05-16T01:48:40.669Z,93.57
2019-05-16T01:49:40.639Z,94.09
2019-05-16T01:50:40.636Z,94.92
2019-05-16T01:51:40.642Z,94.71
2019-05-16T01:52:40.797Z,94.40
2019-05-16T01:53:40.605Z,94.50
2019-05-16T01:54:40.598Z,94.71
2019-05-16T01:55:40.759Z,95.12
2019-05-16T01:56:40.598Z,95.43
2019-05-16T01:57:40.555Z,94.09
2019-05-16T01:58:40.557Z,93.16
2019-05-16T01:59:40.533Z,93.68
2019-05-16T02:00:52.635Z,94.19
2019-05-16T02:01:41.570Z,94.46
2019-05-16T02:02:40.525Z,93.16
2019-05-16T02:03:40.499Z,92.44
2019-05-16T02:04:40.486Z,92.13
2019-05-16T02:05:40.481Z,91.92
2019-05-16T02:06:50.839Z,91.82
2019-05-16T02:07:41.472Z,91.16
2019-05-16T02:08:40.444Z,91.36
2019-05-16T02:09:40.456Z,91.77
2019-05-16T02:10:40.464Z,92.08
2019-05-16T02:11:40.411Z,92.70
2019-05-16T02:12:40.405Z,93.73
2019-05-16T02:13:40.780Z,93.94
2019-05-16T02:14:40.373Z,94.15
2019-05-16T02:15:40.374Z,94.04
2019-05-16T02:16:40.344Z,94.04
2019-05-16T02:17:40.616Z,94.04
2019-05-16T02:18:40.336Z,94.04
2019-05-16T02:19:40.335Z,94.15
2019-05-16T02:20:40.358Z,93.98
2019-05-16T02:21:40.578Z,93.88
2019-05-16T02:22:40.282Z,93.47
2019-05-16T02:23:41.217Z,93.47
2019-05-16T02:24:40.263Z,93.57
2019-05-16T02:25:40.857Z,94.40
2019-05-16T02:26:40.252Z,94.60
2019-05-16T02:27:41.002Z,94.60
2019-05-16T02:28:43.694Z,94.81
2019-05-16T02:29:40.286Z,94.29
2019-05-16T02:30:42.159Z,93.68
2019-05-16T02:31:42.172Z,93.47
2019-05-16T02:32:41.788Z,93.68
2019-05-16T02:33:40.704Z,93.98
2019-05-16T02:34:41.709Z,93.84
2019-05-16T02:35:40.678Z,93.68
2019-05-16T02:36:40.579Z,93.98
2019-05-16T02:37:42.205Z,94.25
2019-05-16T02:38:42.286Z,94.19
2019-05-16T02:39:40.922Z,94.19
2019-05-16T02:40:41.799Z,94.29
2019-05-16T02:41:45.634Z,94.71
2019-05-16T02:42:42.298Z,94.81
2019-05-16T02:43:41.937Z,94.40
2019-05-16T02:44:41.202Z,93.88
2019-05-16T02:45:41.565Z,94.09
2019-05-16T02:46:41.785Z,94.09
2019-05-16T02:47:42.456Z,94.29
2019-05-16T02:48:41.035Z,94.60
2019-05-16T02:49:41.824Z,94.50
2019-05-16T02:50:41.478Z,94.50
2019-05-16T02:51:40.623Z,94.40
2019-05-16T02:52:41.283Z,95.12
2019-05-16T02:53:41.633Z,95.43
2019-05-16T02:54:41.144Z,95.64
2019-05-16T02:55:41.088Z,95.64
2019-05-16T02:56:41.800Z,95.22
2019-05-16T02:57:41.444Z,94.92
2019-05-16T02:58:41.347Z,94.81
2019-05-16T02:59:41.644Z,94.81
2019-05-16T03:00:42.687Z,94.92
2019-05-16T03:01:40.864Z,94.50
2019-05-16T03:02:41.881Z,94.29
2019-05-16T03:03:40.196Z,94.40
2019-05-16T03:04:43.723Z,94.19
2019-05-16T03:05:41.852Z,93.98
2019-05-16T03:06:41.053Z,93.98
2019-05-16T03:07:45.828Z,94.19
2019-05-16T03:08:41.327Z,94.50
2019-05-16T03:09:41.087Z,94.40
2019-05-16T03:10:41.329Z,94.40
2019-05-16T03:11:41.989Z,95.02
2019-05-16T03:12:41.139Z,95.32
2019-05-16T03:13:42.330Z,95.53
2019-05-16T03:14:41.952Z,95.43
2019-05-16T03:15:40.742Z,95.12
2019-05-16T03:16:41.800Z,94.96
2019-05-16T03:17:40.337Z,95.17
2019-05-16T03:18:41.448Z,95.27
2019-05-16T03:19:41.795Z,95.27
2019-05-16T03:20:40.760Z,95.57
2019-05-16T03:21:41.331Z,95.78
2019-05-16T03:22:41.393Z,95.89
2019-05-16T03:23:42.083Z,96.20
2019-05-16T03:24:42.122Z,96.24
2019-05-16T03:25:41.920Z,96.34
2019-05-16T03:26:40.848Z,96.66
2019-05-16T03:27:41.430Z,96.92
2019-05-16T03:28:41.323Z,97.02
2019-05-16T03:29:41.751Z,97.13
2019-05-16T03:30:44.827Z,97.33
2019-05-16T03:31:44.418Z,97.44
2019-05-16T03:32:45.221Z,97.44
2019-05-16T03:33:48.994Z,97.33
2019-05-16T03:34:44.120Z,97.23
2019-05-16T03:35:44.657Z,97.23
2019-05-16T03:36:43.869Z,97.23
2019-05-16T03:37:54.392Z,97.44
2019-05-16T03:38:41.336Z,97.60
2019-05-16T03:39:40.682Z,97.71
2019-05-16T03:40:41.296Z,97.60
2019-05-16T03:41:41.470Z,96.98
2019-05-16T03:42:41.613Z,96.98
2019-05-16T03:43:41.278Z,97.08
2019-05-16T03:44:41.131Z,97.19
2019-05-16T03:45:41.728Z,96.98
2019-05-16T03:46:41.266Z,96.47
2019-05-16T03:47:42.666Z,96.56
2019-05-16T03:48:40.828Z,96.36
2019-05-16T03:49:42.006Z,96.26
2019-05-16T03:50:41.277Z,96.26
2019-05-16T03:51:41.429Z,96.15
2019-05-16T03:52:43.354Z,95.84
2019-05-16T03:53:40.429Z,95.89
2019-05-16T03:54:41.965Z,95.89
2019-05-16T03:55:40.765Z,96.09
2019-05-16T03:56:40.818Z,96.41
2019-05-16T03:57:41.628Z,96.41
2019-05-16T03:58:41.522Z,96.51
2019-05-16T03:59:40.835Z,96.61
2019-05-16T04:00:45.256Z,96.66
2019-05-16T04:01:40.941Z,97.07
2019-05-16T04:02:44.883Z,97.07
2019-05-16T04:03:41.352Z,97.07
2019-05-16T04:04:41.773Z,97.17
2019-05-16T04:05:41.372Z,97.28
2019-05-16T04:06:41.562Z,97.49
2019-05-16T04:07:41.413Z,97.69
2019-05-16T04:08:41.231Z,97.79
2019-05-16T04:09:41.136Z,98.00
2019-05-16T04:10:40.925Z,98.21
2019-05-16T04:11:42.163Z,98.31
2019-05-16T04:12:41.824Z,98.31
2019-05-16T04:13:41.232Z,98.27
2019-05-16T04:14:41.027Z,98.27
2019-05-16T04:15:40.828Z,98.27
2019-05-16T04:16:41.408Z,98.06
2019-05-16T04:17:41.226Z,98.06
2019-05-16T04:18:41.952Z,97.96
2019-05-16T04:19:41.551Z,97.85
2019-05-16T04:20:40.639Z,97.60
2019-05-16T04:21:42.185Z,97.39
2019-05-16T04:22:40.802Z,97.29
2019-05-16T04:23:41.850Z,97.08
2019-05-16T04:24:41.556Z,96.88
2019-05-16T04:25:41.030Z,96.77
2019-05-16T04:26:41.159Z,96.56
2019-05-16T04:27:41.557Z,96.31
2019-05-16T04:28:41.306Z,96.01
2019-05-16T04:29:40.778Z,95.49
2019-05-16T04:30:41.468Z,96.11
2019-05-16T04:31:41.282Z,94.25
2019-05-16T04:32:41.463Z,92.46
2019-05-16T04:33:41.665Z,93.18
2019-05-16T04:34:41.574Z,93.59
2019-05-16T04:35:41.131Z,94.10
2019-05-16T04:36:40.641Z,92.41
2019-05-16T04:37:42.282Z,91.79
2019-05-16T04:38:45.115Z,90.55
2019-05-16T04:39:41.449Z,89.52
2019-05-16T04:40:42.220Z,87.15
2019-05-16T04:41:40.982Z,85.46
2019-05-16T04:42:41.616Z,84.53
2019-05-16T04:43:41.344Z,83.87
2019-05-16T04:44:41.679Z,82.84
2019-05-16T04:45:41.408Z,83.56
2019-05-16T04:46:41.099Z,82.33
2019-05-16T04:47:41.410Z,82.70
2019-05-16T04:48:41.568Z,81.88
2019-05-16T04:49:41.277Z,81.57
2019-05-16T04:50:41.807Z,80.54
2019-05-16T04:51:41.362Z,79.37
2019-05-16T04:52:41.734Z,80.51
2019-05-16T04:53:42.102Z,79.58
2019-05-16T04:54:41.859Z,78.24
2019-05-16T04:55:41.845Z,78.65
2019-05-16T04:56:41.248Z,80.09
2019-05-16T04:57:42.100Z,80.61
2019-05-16T04:58:40.745Z,79.79
2019-05-16T04:59:41.487Z,79.85
2019-05-16T05:00:41.808Z,80.05
2019-05-16T05:01:41.306Z,79.16
2019-05-16T05:02:41.719Z,77.93
2019-05-16T05:03:40.973Z,76.86
2019-05-16T05:04:41.496Z,77.79
2019-05-16T05:05:41.323Z,76.66
2019-05-16T05:06:40.585Z,76.56
2019-05-16T05:07:40.632Z,77.58
2019-05-16T05:08:52.907Z,79.13
2019-05-16T05:09:40.913Z,78.61
2019-05-16T05:10:40.689Z,77.69
2019-05-16T05:11:41.038Z,78.72
2019-05-16T05:12:40.851Z,76.97
2019-05-16T05:13:41.095Z,77.38
2019-05-16T05:14:41.453Z,78.61
2019-05-16T05:15:40.069Z,78.72
2019-05-16T05:16:41.108Z,77.28
2019-05-16T05:17:40.929Z,77.07
2019-05-16T05:18:40.777Z,77.58
2019-05-16T05:19:41.180Z,76.76
2019-05-16T05:20:40.856Z,75.63
2019-05-16T05:21:40.805Z,76.86
2019-05-16T05:22:39.735Z,76.62
2019-05-16T05:23:40.598Z,76.42
2019-05-16T05:24:40.425Z,74.26
2019-05-16T05:25:40.452Z,74.05
2019-05-16T05:26:38.330Z,76.11
2019-05-16T05:27:40.954Z,76.21
2019-05-16T05:28:40.227Z,75.90
2019-05-16T05:29:39.833Z,74.46
2019-05-16T05:30:38.257Z,74.26
2019-05-16T05:31:43.612Z,74.26
2019-05-16T05:32:41.338Z,74.46
2019-05-16T05:33:41.380Z,73.02
2019-05-16T05:34:39.831Z,74.46
2019-05-16T05:35:40.706Z,73.95
2019-05-16T05:36:40.751Z,74.15
2019-05-16T05:37:40.705Z,74.15
2019-05-16T05:38:40.273Z,73.33
2019-05-16T05:39:39.740Z,74.87
2019-05-16T05:40:40.438Z,73.64
2019-05-16T05:41:40.057Z,73.85
2019-05-16T05:42:39.901Z,74.67
2019-05-16T05:43:39.747Z,75.08
2019-05-16T05:44:40.034Z,76.01
2019-05-16T05:45:40.101Z,75.18
2019-05-16T05:46:40.034Z,74.57
2019-05-16T05:47:40.250Z,75.29
2019-05-16T05:48:40.866Z,74.87
2019-05-16T05:49:40.347Z,74.67
2019-05-16T05:50:40.050Z,74.46
2019-05-16T05:51:40.434Z,75.08
2019-05-16T05:52:40.837Z,74.98
2019-05-16T05:53:40.046Z,72.00
2019-05-16T05:54:40.555Z,74.36
2019-05-16T05:55:40.326Z,74.15
2019-05-16T05:56:39.808Z,72.51
2019-05-16T05:57:40.063Z,72.41
2019-05-16T05:58:40.588Z,72.41
2019-05-16T05:59:40.295Z,72.17
2019-05-16T06:00:40.409Z,72.92
2019-05-16T06:01:40.454Z,72.72
2019-05-16T06:02:39.965Z,73.71
2019-05-16T06:03:39.753Z,72.17
2019-05-16T06:04:39.574Z,71.45
2019-05-16T06:05:37.852Z,72.99
2019-05-16T06:06:37.884Z,71.45
2019-05-16T06:07:40.194Z,71.34
2019-05-16T06:08:37.822Z,72.06
2019-05-16T06:09:52.158Z,72.99
2019-05-16T06:10:40.532Z,70.73
2019-05-16T06:11:37.799Z,72.58
2019-05-16T06:12:40.542Z,71.34
2019-05-16T06:13:40.264Z,72.38
2019-05-16T06:14:37.761Z,70.62
2019-05-16T06:15:39.869Z,70.79
2019-05-16T06:16:40.061Z,70.70
2019-05-16T06:17:40.023Z,70.59
2019-05-16T06:18:39.582Z,71.41
2019-05-16T06:19:37.702Z,69.98
2019-05-16T06:20:39.986Z,71.69
2019-05-16T06:21:37.724Z,71.79
2019-05-16T06:22:40.138Z,70.25
2019-05-16T06:23:40.127Z,72.10
2019-05-16T06:24:39.786Z,70.97
2019-05-16T06:25:37.641Z,69.43
2019-05-16T06:26:39.627Z,68.88
2019-05-16T06:27:37.638Z,69.19
2019-05-16T06:28:37.618Z,69.70
2019-05-16T06:29:37.593Z,68.78
2019-05-16T06:30:37.577Z,67.93
2019-05-16T06:31:37.570Z,68.13
2019-05-16T06:32:39.498Z,69.16
2019-05-16T06:33:37.572Z,69.06
2019-05-16T06:34:37.561Z,67.90
2019-05-16T06:35:40.089Z,67.69
2019-05-16T06:36:39.971Z,67.38
2019-05-16T06:37:37.509Z,69.43
2019-05-16T06:38:37.500Z,68.10
2019-05-16T06:39:41.840Z,67.66
2019-05-16T06:40:40.166Z,67.86
2019-05-16T06:41:39.646Z,67.76
2019-05-16T06:42:40.044Z,67.46
2019-05-16T06:43:39.863Z,69.40
2019-05-16T06:44:39.969Z,68.45
2019-05-16T06:45:40.070Z,67.43
2019-05-16T06:46:44.368Z,69.06
2019-05-16T06:47:39.714Z,66.27
2019-05-16T06:48:39.677Z,65.78
2019-05-16T06:49:37.374Z,65.34
2019-05-16T06:50:37.368Z,66.67
2019-05-16T06:51:39.613Z,65.21
2019-05-16T06:52:37.350Z,66.64
2019-05-16T06:53:37.325Z,66.13
2019-05-16T06:54:37.328Z,66.82
2019-05-16T06:55:37.299Z,65.56
2019-05-16T06:56:39.900Z,66.17
2019-05-16T06:57:37.299Z,65.22
2019-05-16T06:58:45.607Z,64.20
2019-05-16T06:59:40.359Z,64.27
2019-05-16T07:00:37.249Z,63.15
2019-05-16T07:01:37.236Z,62.92
2019-05-16T07:02:37.238Z,63.29
2019-05-16T07:03:37.253Z,62.17
2019-05-16T07:04:39.710Z,63.81
2019-05-16T07:05:37.199Z,63.57
2019-05-16T07:06:51.929Z,63.47
2019-05-16T07:07:40.179Z,63.67
2019-05-16T07:08:37.168Z,64.42
2019-05-16T07:09:37.167Z,62.07
2019-05-16T07:10:37.146Z,64.04
2019-05-16T07:11:37.148Z,65.16
2019-05-16T07:12:37.129Z,62.40
2019-05-16T07:13:37.105Z,63.70
2019-05-16T07:14:37.152Z,64.62
2019-05-16T07:15:37.085Z,62.88
2019-05-16T07:16:37.100Z,64.49
2019-05-16T07:17:37.065Z,64.15
2019-05-16T07:18:37.059Z,63.13
2019-05-16T07:19:37.067Z,61.71
2019-05-16T07:20:37.045Z,63.54
2019-05-16T07:21:37.076Z,62.82
2019-05-16T07:22:37.005Z,61.80
2019-05-16T07:23:37.001Z,63.13
2019-05-16T07:24:36.992Z,60.17
2019-05-16T07:25:36.988Z,62.32
2019-05-16T07:26:36.977Z,61.80
2019-05-16T07:27:36.995Z,61.40
2019-05-16T07:28:36.973Z,62.93
2019-05-16T07:29:36.968Z,62.42
2019-05-16T07:30:36.957Z,60.78
2019-05-16T07:31:36.919Z,61.09
2019-05-16T07:32:36.924Z,62.32
2019-05-16T07:33:36.890Z,62.45
2019-05-16T07:34:36.885Z,62.65
2019-05-16T07:35:36.898Z,61.22
2019-05-16T07:36:36.864Z,61.73
2019-05-16T07:37:36.863Z,63.47
2019-05-16T07:38:36.868Z,63.67
2019-05-16T07:39:38.688Z,62.45
2019-05-16T07:40:36.817Z,63.98
2019-05-16T07:41:36.836Z,62.65
2019-05-16T07:42:36.798Z,62.45
2019-05-16T07:43:36.805Z,63.34
2019-05-16T07:44:36.790Z,60.92
2019-05-16T07:45:38.514Z,62.24
2019-05-16T07:46:36.756Z,61.35
2019-05-16T07:47:36.736Z,62.37
2019-05-16T07:48:36.732Z,62.07
2019-05-16T07:49:36.757Z,63.40
2019-05-16T07:50:36.716Z,62.14
2019-05-16T07:51:36.723Z,62.45
2019-05-16T07:52:36.863Z,61.12
2019-05-16T07:53:36.687Z,61.83
2019-05-16T07:54:36.672Z,60.58
2019-05-16T07:55:36.648Z,60.28
2019-05-16T07:56:36.645Z,60.00
2019-05-16T07:57:36.635Z,60.61
2019-05-16T07:58:36.610Z,61.32
2019-05-16T07:59:36.629Z,62.35
2019-05-16T08:00:49.467Z,62.93
2019-05-16T08:01:39.722Z,63.44
2019-05-16T08:02:36.580Z,64.32
2019-05-16T08:03:36.597Z,60.17
2019-05-16T08:04:36.682Z,59.56
2019-05-16T08:05:36.692Z,61.83
2019-05-16T08:06:36.523Z,62.85
2019-05-16T08:07:36.526Z,60.21
2019-05-16T08:08:36.513Z,62.48
2019-05-16T08:09:36.536Z,62.17
2019-05-16T08:10:41.702Z,63.02
2019-05-16T08:11:37.466Z,63.73
2019-05-16T08:12:36.481Z,62.23
2019-05-16T08:13:36.466Z,62.51
2019-05-16T08:14:36.477Z,64.24
2019-05-16T08:15:36.425Z,64.65
2019-05-16T08:16:36.406Z,64.86
2019-05-16T08:17:36.409Z,61.79
2019-05-16T08:18:36.407Z,63.73
2019-05-16T08:19:36.429Z,63.32
2019-05-16T08:20:36.407Z,62.51
2019-05-16T08:21:36.381Z,62.40
2019-05-16T08:22:36.386Z,63.43
2019-05-16T08:23:36.344Z,64.58
2019-05-16T08:24:36.396Z,63.93
2019-05-16T08:25:36.337Z,63.83
2019-05-16T08:26:41.978Z,63.66
2019-05-16T08:27:37.313Z,63.45
2019-05-16T08:28:36.275Z,64.68
2019-05-16T08:29:36.283Z,64.48
2019-05-16T08:30:36.279Z,64.24
2019-05-16T08:31:36.280Z,64.45
2019-05-16T08:32:36.248Z,63.32
2019-05-16T08:33:36.217Z,63.32
2019-05-16T08:34:36.226Z,65.09
2019-05-16T08:35:36.199Z,62.92
2019-05-16T08:36:36.224Z,65.09
2019-05-16T08:37:42.528Z,63.12
2019-05-16T08:38:37.165Z,63.56
2019-05-16T08:39:36.190Z,63.86
2019-05-16T08:41:01.130Z,62.74
2019-05-16T08:41:37.166Z,63.73
2019-05-16T08:42:36.128Z,64.55
2019-05-16T08:43:36.118Z,65.57
2019-05-16T08:44:36.138Z,63.53
2019-05-16T08:45:36.113Z,63.73
2019-05-16T08:46:36.105Z,63.02
2019-05-16T08:47:36.145Z,65.67
2019-05-16T08:48:36.069Z,64.22
2019-05-16T08:49:36.056Z,64.72
2019-05-16T08:50:36.955Z,64.49
2019-05-16T08:51:36.055Z,61.83
2019-05-16T08:52:36.030Z,62.04
2019-05-16T08:53:36.009Z,62.55
2019-05-16T08:54:36.007Z,61.50
2019-05-16T08:55:35.989Z,63.82
2019-05-16T08:56:35.985Z,62.74
2019-05-16T08:57:35.987Z,60.37
2019-05-16T08:58:35.966Z,58.40
2019-05-16T08:59:35.949Z,58.58
2019-05-16T09:00:35.982Z,60.00
2019-05-16T09:01:35.947Z,59.19
2019-05-16T09:02:36.960Z,57.69
2019-05-16T09:03:35.927Z,58.35
2019-05-16T09:04:35.902Z,58.20
2019-05-16T09:05:35.877Z,55.98
2019-05-16T09:06:35.870Z,55.68
2019-05-16T09:07:35.870Z,56.67
2019-05-16T09:08:35.862Z,54.61
2019-05-16T09:09:44.151Z,54.69
2019-05-16T09:10:59.058Z,55.66
2019-05-16T09:11:43.980Z,55.86
2019-05-16T09:12:37.237Z,56.49
2019-05-16T09:13:37.017Z,55.93
2019-05-16T09:14:38.964Z,55.12
2019-05-16T09:15:38.998Z,56.34
2019-05-16T09:16:37.204Z,58.54
2019-05-16T09:17:38.410Z,57.43
2019-05-16T09:18:41.238Z,56.21
2019-05-16T09:19:36.921Z,56.79
2019-05-16T09:20:37.449Z,57.48
2019-05-16T09:21:38.382Z,55.93
2019-05-16T09:22:37.763Z,55.35
2019-05-16T09:23:38.284Z,53.32
2019-05-16T09:24:37.721Z,53.12
2019-05-16T09:25:36.889Z,52.59
2019-05-16T09:26:38.125Z,50.90
2019-05-16T09:27:38.114Z,51.65
2019-05-16T09:28:38.995Z,52.87
2019-05-16T09:29:36.630Z,54.51
2019-05-16T09:30:37.022Z,55.52
2019-05-16T09:31:38.593Z,53.25
2019-05-16T09:32:36.965Z,54.99
2019-05-16T09:33:37.552Z,55.93
2019-05-16T09:34:37.825Z,54.08
2019-05-16T09:35:36.997Z,51.93
2019-05-16T09:36:37.103Z,53.52
2019-05-16T09:37:37.600Z,54.03
2019-05-16T09:38:38.297Z,57.42
2019-05-16T09:39:37.145Z,51.86
2019-05-16T09:40:38.704Z,54.76
2019-05-16T09:41:49.757Z,53.34
2019-05-16T09:42:37.242Z,51.96
2019-05-16T09:43:38.532Z,52.46
2019-05-16T09:44:36.979Z,58.26
2019-05-16T09:45:37.870Z,56.74
2019-05-16T09:46:37.477Z,56.87
2019-05-16T09:47:38.602Z,55.02
2019-05-16T09:48:38.014Z,55.22
2019-05-16T09:49:37.106Z,55.25
2019-05-16T09:50:37.753Z,55.78
2019-05-16T09:51:37.603Z,55.37
2019-05-16T09:52:36.417Z,55.43
2019-05-16T09:53:36.628Z,54.33
2019-05-16T09:54:37.704Z,56.00
2019-05-16T09:55:37.197Z,54.05
2019-05-16T09:56:36.955Z,53.38
2019-05-16T09:57:37.671Z,53.12
2019-05-16T09:58:37.241Z,54.16
2019-05-16T09:59:37.077Z,53.67
2019-05-16T10:00:37.379Z,54.21
2019-05-16T10:01:37.049Z,54.97
2019-05-16T10:02:36.787Z,55.10
2019-05-16T10:03:37.285Z,55.27
2019-05-16T10:04:36.842Z,55.37
2019-05-16T10:05:37.174Z,54.56
2019-05-16T10:06:37.206Z,54.33
2019-05-16T10:07:38.523Z,56.43
2019-05-16T10:08:37.307Z,53.88
2019-05-16T10:09:42.047Z,54.69
2019-05-16T10:10:36.977Z,54.46
2019-05-16T10:11:40.897Z,54.03
2019-05-16T10:12:37.136Z,53.75
2019-05-16T10:13:37.314Z,52.94
2019-05-16T10:14:37.651Z,54.08
2019-05-16T10:15:37.614Z,56.48
2019-05-16T10:16:36.702Z,52.16
2019-05-16T10:17:37.069Z,53.07
2019-05-16T10:18:36.970Z,51.07
2019-05-16T10:19:36.762Z,53.80
2019-05-16T10:20:36.719Z,54.61
2019-05-16T10:21:37.224Z,52.99
2019-05-16T10:22:37.213Z,54.41
2019-05-16T10:23:36.452Z,57.52
2019-05-16T10:24:37.423Z,56.91
2019-05-16T10:25:37.541Z,53.40
2019-05-16T10:26:37.066Z,57.87
2019-05-16T10:27:36.763Z,55.93
2019-05-16T10:28:38.156Z,55.42
2019-05-16T10:29:37.556Z,54.64
2019-05-16T10:30:37.488Z,55.07
2019-05-16T10:31:44.794Z,57.78
2019-05-16T10:32:36.509Z,54.03
2019-05-16T10:33:38.649Z,55.40
2019-05-16T10:34:36.962Z,56.82
2019-05-16T10:35:37.222Z,58.13
2019-05-16T10:36:37.159Z,57.22
2019-05-16T10:37:37.399Z,56.21
2019-05-16T10:38:37.375Z,55.90
2019-05-16T10:39:37.280Z,56.34
2019-05-16T10:40:36.924Z,56.77
2019-05-16T10:41:36.942Z,58.90
2019-05-16T10:42:37.675Z,60.21
2019-05-16T10:43:36.929Z,59.61
2019-05-16T10:44:38.209Z,58.42
2019-05-16T10:45:36.737Z,58.22
2019-05-16T10:46:37.459Z,58.69
2019-05-16T10:47:36.926Z,58.01
2019-05-16T10:48:37.373Z,60.24
2019-05-16T10:49:38.756Z,58.34
2019-05-16T10:50:36.944Z,61.01
2019-05-16T10:51:34.770Z,59.89
2019-05-16T10:52:36.633Z,59.92
2019-05-16T10:54:00.497Z,60.53
2019-05-16T10:54:37.012Z,60.63
2019-05-16T10:55:36.763Z,60.56
2019-05-16T10:56:34.751Z,61.55
2019-05-16T10:57:35.248Z,59.31
2019-05-16T10:58:41.652Z,60.60
2019-05-16T11:00:00.439Z,60.75
2019-05-16T11:01:05.018Z,57.98
2019-05-16T11:01:36.725Z,59.00
2019-05-16T11:02:36.972Z,59.20
2019-05-16T11:03:34.585Z,59.14
2019-05-16T11:04:52.857Z,58.23
2019-05-16T11:05:38.846Z,59.05
2019-05-16T11:06:37.098Z,59.07
2019-05-16T11:07:37.102Z,57.98
2019-05-16T11:08:37.209Z,59.10
2019-05-16T11:09:39.145Z,58.59
2019-05-16T11:10:37.162Z,57.98
2019-05-16T11:11:36.633Z,60.21
2019-05-16T11:12:47.457Z,59.23
2019-05-16T11:13:37.034Z,59.66
2019-05-16T11:14:36.892Z,61.08
2019-05-16T11:15:34.476Z,62.51
2019-05-16T11:16:36.685Z,61.76
2019-05-16T11:17:34.477Z,60.21
2019-05-16T11:18:34.437Z,58.92
2019-05-16T11:19:37.096Z,61.53
2019-05-16T11:20:37.158Z,59.33
2019-05-16T11:21:34.407Z,60.88
2019-05-16T11:22:36.998Z,60.60
2019-05-16T11:23:36.572Z,61.08
2019-05-16T11:24:34.414Z,60.98
2019-05-16T11:25:36.493Z,59.97
2019-05-16T11:26:36.637Z,62.43
2019-05-16T11:27:34.343Z,61.69
2019-05-16T11:28:36.788Z,60.60
2019-05-16T11:29:36.485Z,61.62
2019-05-16T11:30:37.320Z,61.32
2019-05-16T11:31:34.307Z,61.72
2019-05-16T11:32:34.290Z,62.40
2019-05-16T11:33:36.845Z,59.59
2019-05-16T11:34:34.303Z,59.79
2019-05-16T11:35:34.242Z,60.20
2019-05-16T11:36:34.245Z,60.58
2019-05-16T11:37:34.222Z,59.26
2019-05-16T11:38:34.221Z,61.90
2019-05-16T11:39:34.201Z,59.53
2019-05-16T11:40:34.219Z,59.14
2019-05-16T11:41:34.175Z,58.94
2019-05-16T11:42:34.190Z,58.06
2019-05-16T11:43:36.549Z,58.76
2019-05-16T11:44:34.160Z,59.65
2019-05-16T11:45:36.595Z,58.41
2019-05-16T11:46:37.237Z,58.61
2019-05-16T11:47:36.313Z,59.19
2019-05-16T11:48:34.116Z,57.57
2019-05-16T11:49:34.116Z,59.36
2019-05-16T11:50:37.026Z,56.00
2019-05-16T11:51:34.072Z,54.96
2019-05-16T11:52:34.060Z,56.91
2019-05-16T11:53:34.045Z,59.09
2019-05-16T11:54:34.047Z,58.61
2019-05-16T11:55:37.015Z,57.20
2019-05-16T11:56:36.905Z,58.41
2019-05-16T11:57:34.013Z,59.72
2019-05-16T11:58:34.012Z,58.31
2019-05-16T11:59:33.978Z,58.61
2019-05-16T12:00:33.988Z,59.63
2019-05-16T12:01:36.819Z,60.74
2019-05-16T12:02:37.675Z,60.43
2019-05-16T12:03:37.338Z,60.03
2019-05-16T12:04:33.961Z,59.83
2019-05-16T12:05:33.922Z,58.74
2019-05-16T12:06:33.951Z,60.86
2019-05-16T12:07:35.085Z,61.07
2019-05-16T12:08:33.889Z,60.97
2019-05-16T12:09:37.233Z,61.20
2019-05-16T12:10:36.288Z,61.60
2019-05-16T12:11:33.896Z,63.46
2019-05-16T12:12:33.861Z,61.16
2019-05-16T12:13:33.826Z,64.03
2019-05-16T12:14:33.853Z,65.10
2019-05-16T12:15:33.807Z,67.27
2019-05-16T12:16:33.836Z,68.92
2019-05-16T12:17:33.806Z,69.46
2019-05-16T12:18:33.780Z,70.68
2019-05-16T12:19:37.757Z,70.51
2019-05-16T12:20:34.770Z,70.75
2019-05-16T12:21:33.748Z,72.21
2019-05-16T12:22:33.761Z,71.94
2019-05-16T12:23:33.761Z,73.67
2019-05-16T12:24:38.801Z,72.65
2019-05-16T12:25:36.723Z,74.83
2019-05-16T12:26:33.755Z,73.71
2019-05-16T12:27:34.153Z,72.89
2019-05-16T12:28:33.691Z,75.44
2019-05-16T12:29:33.702Z,76.05
2019-05-16T12:30:33.661Z,75.81
2019-05-16T12:31:33.662Z,74.90
2019-05-16T12:32:33.633Z,73.67
2019-05-16T12:33:33.609Z,74.08
2019-05-16T12:34:33.647Z,71.84
2019-05-16T12:35:33.622Z,72.75
2019-05-16T12:36:33.576Z,73.57
2019-05-16T12:37:33.593Z,74.04
2019-05-16T12:38:33.563Z,71.09
2019-05-16T12:39:33.587Z,70.99
2019-05-16T12:40:33.533Z,70.78
2019-05-16T12:41:33.532Z,69.97
2019-05-16T12:42:33.512Z,72.11
2019-05-16T12:43:48.206Z,71.26
2019-05-16T12:44:34.520Z,71.87
2019-05-16T12:45:33.485Z,70.95
2019-05-16T12:46:33.474Z,71.36
2019-05-16T12:47:33.484Z,70.24
2019-05-16T12:48:33.439Z,70.48
2019-05-16T12:49:33.446Z,72.82
2019-05-16T12:50:33.464Z,71.73
2019-05-16T12:51:33.425Z,74.69
2019-05-16T12:52:34.266Z,73.10